sensor_id;sensor_type;location;lat;lon;timestamp;pressure;altitude;pressure_sealevel;temperature;humidity
69318;BME280;56457;52.190;4.440;2022-08-21T00:00:37;101733.50;;;20.01;79.27
69318;BME280;56457;52.190;4.440;2022-08-21T00:01:38;101737.84;;;20.04;79.11
69318;BME280;56457;52.190;4.440;2022-08-21T00:02:50;101732.63;;;20.01;79.42
69318;BME280;56457;52.190;4.440;2022-08-21T00:03:51;101733.53;;;20.00;79.39
69318;BME280;56457;52.190;4.440;2022-08-21T00:04:53;101733.53;;;20.00;79.50
69318;BME280;56457;52.190;4.440;2022-08-21T00:05:55;101731.78;;;19.99;79.69
69318;BME280;56457;52.190;4.440;2022-08-21T00:06:56;101730.13;;;19.96;79.81
69318;BME280;56457;52.190;4.440;2022-08-21T00:07:57;101733.72;;;19.94;79.59
69318;BME280;56457;52.190;4.440;2022-08-21T00:08:57;101733.03;;;19.88;79.87
69318;BME280;56457;52.190;4.440;2022-08-21T00:09:58;101723.41;;;19.84;80.10
69318;BME280;56457;52.190;4.440;2022-08-21T00:10:58;101727.06;;;19.80;80.03
69318;BME280;56457;52.190;4.440;2022-08-21T00:11:59;101720.84;;;19.81;80.17
69318;BME280;56457;52.190;4.440;2022-08-21T00:13:01;101726.06;;;19.84;80.25
69318;BME280;56457;52.190;4.440;2022-08-21T00:14:04;101719.94;;;19.82;80.16
69318;BME280;56457;52.190;4.440;2022-08-21T00:15:07;101725.28;;;19.81;80.41
69318;BME280;56457;52.190;4.440;2022-08-21T00:16:09;101726.16;;;19.81;80.57
69318;BME280;56457;52.190;4.440;2022-08-21T00:17:09;101714.59;;;19.82;80.70
69318;BME280;56457;52.190;4.440;2022-08-21T00:18:10;101711.94;;;19.82;80.50
69318;BME280;56457;52.190;4.440;2022-08-21T00:19:11;101721.81;;;19.79;80.52
69318;BME280;56457;52.190;4.440;2022-08-21T00:20:16;101714.63;;;19.81;80.43
69318;BME280;56457;52.190;4.440;2022-08-21T00:21:17;101718.19;;;19.81;80.75
69318;BME280;56457;52.190;4.440;2022-08-21T00:22:17;101727.25;;;19.76;80.10
69318;BME280;56457;52.190;4.440;2022-08-21T00:23:19;101723.66;;;19.77;80.48
69318;BME280;56457;52.190;4.440;2022-08-21T00:24:20;101724.66;;;19.73;80.69
69318;BME280;56457;52.190;4.440;2022-08-21T00:25:20;101726.56;;;19.69;80.80
69318;BME280;56457;52.190;4.440;2022-08-21T00:26:21;101723.97;;;19.66;80.77
69318;BME280;56457;52.190;4.440;2022-08-21T00:27:21;101717.69;;;19.69;81.09
69318;BME280;56457;52.190;4.440;2022-08-21T00:28:22;101722.13;;;19.68;80.89
69318;BME280;56457;52.190;4.440;2022-08-21T00:29:22;101717.84;;;19.64;80.97
69318;BME280;56457;52.190;4.440;2022-08-21T00:30:25;101720.44;;;19.66;81.04
69318;BME280;56457;52.190;4.440;2022-08-21T00:31:27;101716.97;;;19.63;81.34
69318;BME280;56457;52.190;4.440;2022-08-21T00:32:28;101718.78;;;19.61;81.15
69318;BME280;56457;52.190;4.440;2022-08-21T00:33:30;101723.38;;;19.58;81.01
69318;BME280;56457;52.190;4.440;2022-08-21T00:34:31;101721.59;;;19.57;81.50
69318;BME280;56457;52.190;4.440;2022-08-21T00:35:35;101721.59;;;19.57;81.37
69318;BME280;56457;52.190;4.440;2022-08-21T00:36:36;101719.81;;;19.56;81.45
69318;BME280;56457;52.190;4.440;2022-08-21T00:37:38;101721.00;;;19.47;81.81
69318;BME280;56457;52.190;4.440;2022-08-21T00:38:39;101717.47;;;19.47;82.12
69318;BME280;56457;52.190;4.440;2022-08-21T00:39:39;101715.63;;;19.49;82.17
69318;BME280;56457;52.190;4.440;2022-08-21T00:40:54;101720.38;;;19.39;82.49
69318;BME280;56457;52.190;4.440;2022-08-21T00:41:55;101717.09;;;19.29;82.34
69318;BME280;56457;52.190;4.440;2022-08-21T00:42:55;101717.66;;;19.11;83.07
69318;BME280;56457;52.190;4.440;2022-08-21T00:43:56;101719.78;;;18.98;83.34
69318;BME280;56457;52.190;4.440;2022-08-21T00:44:57;101717.47;;;18.86;84.16
69318;BME280;56457;52.190;4.440;2022-08-21T00:45:58;101720.53;;;18.72;84.69
69318;BME280;56457;52.190;4.440;2022-08-21T00:46:59;101721.88;;;18.54;85.50
69318;BME280;56457;52.190;4.440;2022-08-21T00:47:59;101723.81;;;18.48;86.17
69318;BME280;56457;52.190;4.440;2022-08-21T00:49:00;101727.47;;;18.44;86.72
69318;BME280;56457;52.190;4.440;2022-08-21T00:50:00;101721.31;;;18.42;87.04
69318;BME280;56457;52.190;4.440;2022-08-21T00:51:11;101717.97;;;18.35;87.51
69318;BME280;56457;52.190;4.440;2022-08-21T00:52:17;101725.97;;;18.34;87.65
69318;BME280;56457;52.190;4.440;2022-08-21T00:53:19;101723.53;;;18.26;88.55
69318;BME280;56457;52.190;4.440;2022-08-21T00:54:22;101723.63;;;18.21;88.80
69318;BME280;56457;52.190;4.440;2022-08-21T00:55:24;101723.69;;;18.18;89.26
69318;BME280;56457;52.190;4.440;2022-08-21T00:56:25;101722.91;;;18.15;89.34
69318;BME280;56457;52.190;4.440;2022-08-21T00:57:29;101723.84;;;18.12;90.05
69318;BME280;56457;52.190;4.440;2022-08-21T00:58:32;101722.16;;;18.10;89.67
69318;BME280;56457;52.190;4.440;2022-08-21T00:59:36;101722.22;;;18.07;90.13
69318;BME280;56457;52.190;4.440;2022-08-21T01:00:40;101722.25;;;18.05;90.79
69318;BME280;56457;52.190;4.440;2022-08-21T01:01:41;101711.72;;;18.02;90.89
69318;BME280;56457;52.190;4.440;2022-08-21T01:02:42;101714.41;;;18.00;90.54
69318;BME280;56457;52.190;4.440;2022-08-21T01:03:42;101717.97;;;17.99;91.29
69318;BME280;56457;52.190;4.440;2022-08-21T01:04:43;101713.56;;;17.98;91.20
69318;BME280;56457;52.190;4.440;2022-08-21T01:05:44;101711.91;;;17.94;91.43
69318;BME280;56457;52.190;4.440;2022-08-21T01:06:44;101706.63;;;17.93;91.60
69318;BME280;56457;52.190;4.440;2022-08-21T01:07:45;101700.53;;;17.89;91.85
69318;BME280;56457;52.190;4.440;2022-08-21T01:08:45;101708.50;;;17.89;91.76
69318;BME280;56457;52.190;4.440;2022-08-21T01:09:47;101708.53;;;17.88;92.37
69318;BME280;56457;52.190;4.440;2022-08-21T01:10:48;101708.53;;;17.88;91.99
69318;BME280;56457;52.190;4.440;2022-08-21T01:11:49;101706.75;;;17.88;91.82
69318;BME280;56457;52.190;4.440;2022-08-21T01:12:55;101703.22;;;17.88;92.08
69318;BME280;56457;52.190;4.440;2022-08-21T01:13:55;101701.47;;;17.87;92.60
69318;BME280;56457;52.190;4.440;2022-08-21T01:14:56;101705.00;;;17.87;92.78
69318;BME280;56457;52.190;4.440;2022-08-21T01:15:58;101707.69;;;17.86;92.33
69318;BME280;56457;52.190;4.440;2022-08-21T01:17:00;101706.78;;;17.87;92.90
69318;BME280;56457;52.190;4.440;2022-08-21T01:18:05;101709.38;;;17.90;93.07
69318;BME280;56457;52.190;4.440;2022-08-21T01:19:08;101706.78;;;17.87;92.67
69318;BME280;56457;52.190;4.440;2022-08-21T01:20:11;101705.97;;;17.85;92.70
69318;BME280;56457;52.190;4.440;2022-08-21T01:21:15;101709.47;;;17.85;93.47
69318;BME280;56457;52.190;4.440;2022-08-21T01:22:15;101709.53;;;17.84;93.21
69318;BME280;56457;52.190;4.440;2022-08-21T01:23:16;101708.66;;;17.82;93.50
69318;BME280;56457;52.190;4.440;2022-08-21T01:24:16;101711.31;;;17.83;93.28
69318;BME280;56457;52.190;4.440;2022-08-21T01:25:17;101709.53;;;17.82;93.45
69318;BME280;56457;52.190;4.440;2022-08-21T01:26:26;101710.44;;;17.83;93.55
69318;BME280;56457;52.190;4.440;2022-08-21T01:27:26;101705.13;;;17.83;93.66
69318;BME280;56457;52.190;4.440;2022-08-21T01:28:28;101706.00;;;17.82;93.64
69318;BME280;56457;52.190;4.440;2022-08-21T01:30:36;101713.09;;;17.81;93.46
69318;BME280;56457;52.190;4.440;2022-08-21T01:31:38;101711.31;;;17.82;93.35
69318;BME280;56457;52.190;4.440;2022-08-21T01:32:38;101708.66;;;17.83;93.19
69318;BME280;56457;52.190;4.440;2022-08-21T01:33:39;101710.44;;;17.83;93.53
69318;BME280;56457;52.190;4.440;2022-08-21T01:34:42;101711.31;;;17.82;93.17
69318;BME280;56457;52.190;4.440;2022-08-21T01:35:43;101702.63;;;17.77;93.94
69318;BME280;56457;52.190;4.440;2022-08-21T01:36:45;101710.53;;;17.78;93.47
69318;BME280;56457;52.190;4.440;2022-08-21T01:37:47;101707.03;;;17.78;94.26
69318;BME280;56457;52.190;4.440;2022-08-21T01:38:48;101714.06;;;17.79;94.45
69318;BME280;56457;52.190;4.440;2022-08-21T01:39:48;101707.88;;;17.78;94.15
69318;BME280;56457;52.190;4.440;2022-08-21T01:40:49;101706.97;;;17.79;93.87
69318;BME280;56457;52.190;4.440;2022-08-21T01:41:49;101703.44;;;17.79;93.85
69318;BME280;56457;52.190;4.440;2022-08-21T01:42:50;101704.31;;;17.79;93.90
69318;BME280;56457;52.190;4.440;2022-08-21T01:43:51;101702.53;;;17.80;94.43
69318;BME280;56457;52.190;4.440;2022-08-21T01:44:51;101696.31;;;17.81;94.14
69318;BME280;56457;52.190;4.440;2022-08-21T01:45:52;101700.72;;;17.82;94.61
69318;BME280;56457;52.190;4.440;2022-08-21T01:46:53;101701.56;;;17.82;93.97
69318;BME280;56457;52.190;4.440;2022-08-21T01:47:54;101701.56;;;17.82;94.36
69318;BME280;56457;52.190;4.440;2022-08-21T01:48:54;101700.72;;;17.82;94.46
69318;BME280;56457;52.190;4.440;2022-08-21T01:49:55;101698.06;;;17.82;93.97
69318;BME280;56457;52.190;4.440;2022-08-21T01:50:55;101702.53;;;17.80;95.05
69318;BME280;56457;52.190;4.440;2022-08-21T01:51:56;101703.44;;;17.79;95.00
69318;BME280;56457;52.190;4.440;2022-08-21T01:52:56;101698.16;;;17.79;94.98
69318;BME280;56457;52.190;4.440;2022-08-21T01:53:57;101701.63;;;17.81;95.04
69318;BME280;56457;52.190;4.440;2022-08-21T01:54:57;101695.44;;;17.80;94.95
69318;BME280;56457;52.190;4.440;2022-08-21T01:55:58;101699.84;;;17.81;95.13
69318;BME280;56457;52.190;4.440;2022-08-21T01:56:59;101699.88;;;17.80;95.38
69318;BME280;56457;52.190;4.440;2022-08-21T01:58:00;101695.44;;;17.80;95.08
69318;BME280;56457;52.190;4.440;2022-08-21T01:59:00;101701.63;;;17.81;94.98
69318;BME280;56457;52.190;4.440;2022-08-21T02:00:03;101698.09;;;17.80;94.73
69318;BME280;56457;52.190;4.440;2022-08-21T02:01:03;101695.50;;;17.79;94.71
69318;BME280;56457;52.190;4.440;2022-08-21T02:02:04;101689.31;;;17.78;95.22
69318;BME280;56457;52.190;4.440;2022-08-21T02:03:05;101685.84;;;17.74;95.52
69318;BME280;56457;52.190;4.440;2022-08-21T02:04:07;101684.06;;;17.75;95.75
69318;BME280;56457;52.190;4.440;2022-08-21T02:05:09;101684.97;;;17.74;95.51
69318;BME280;56457;52.190;4.440;2022-08-21T02:06:15;101684.09;;;17.73;95.71
69318;BME280;56457;52.190;4.440;2022-08-21T02:07:17;101683.19;;;17.74;95.79
69318;BME280;56457;52.190;4.440;2022-08-21T02:08:18;101684.09;;;17.73;95.84
69318;BME280;56457;52.190;4.440;2022-08-21T02:09:19;101680.63;;;17.71;95.95
69318;BME280;56457;52.190;4.440;2022-08-21T02:10:26;101683.22;;;17.73;96.56
69318;BME280;56457;52.190;4.440;2022-08-21T02:11:27;101683.22;;;17.73;95.80
69318;BME280;56457;52.190;4.440;2022-08-21T02:12:27;101677.06;;;17.72;95.78
69318;BME280;56457;52.190;4.440;2022-08-21T02:13:28;101679.72;;;17.72;96.17
69318;BME280;56457;52.190;4.440;2022-08-21T02:14:29;101687.63;;;17.74;96.10
69318;BME280;56457;52.190;4.440;2022-08-21T02:15:30;101685.03;;;17.72;96.21
69318;BME280;56457;52.190;4.440;2022-08-21T02:16:31;101683.19;;;17.74;95.73
69318;BME280;56457;52.190;4.440;2022-08-21T02:17:58;101683.19;;;17.74;95.79
69318;BME280;56457;52.190;4.440;2022-08-21T02:18:59;101685.03;;;17.72;95.76
69318;BME280;56457;52.190;4.440;2022-08-21T02:20:00;101677.06;;;17.72;95.97
69318;BME280;56457;52.190;4.440;2022-08-21T02:21:01;101683.28;;;17.71;96.09
69318;BME280;56457;52.190;4.440;2022-08-21T02:22:01;101680.63;;;17.71;96.32
69318;BME280;56457;52.190;4.440;2022-08-21T02:23:02;101681.44;;;17.73;96.39
69318;BME280;56457;52.190;4.440;2022-08-21T02:24:04;101684.97;;;17.74;95.54
69318;BME280;56457;52.190;4.440;2022-08-21T02:25:05;101680.59;;;17.70;96.49
69318;BME280;56457;52.190;4.440;2022-08-21T02:26:07;101683.31;;;17.68;96.15
69318;BME280;56457;52.190;4.440;2022-08-21T02:27:08;101684.22;;;17.67;96.09
69318;BME280;56457;52.190;4.440;2022-08-21T02:28:11;101681.50;;;17.70;96.56
69318;BME280;56457;52.190;4.440;2022-08-21T02:29:12;101681.53;;;17.69;96.18
69318;BME280;56457;52.190;4.440;2022-08-21T02:30:20;101680.59;;;17.70;96.57
69318;BME280;56457;52.190;4.440;2022-08-21T02:31:22;101681.50;;;17.70;96.42
69318;BME280;56457;52.190;4.440;2022-08-21T02:32:22;101679.72;;;17.71;96.13
69318;BME280;56457;52.190;4.440;2022-08-21T02:33:23;101678.84;;;17.70;95.81
69318;BME280;56457;52.190;4.440;2022-08-21T02:34:24;101681.53;;;17.69;96.31
69318;BME280;56457;52.190;4.440;2022-08-21T02:35:25;101677.09;;;17.69;96.45
69318;BME280;56457;52.190;4.440;2022-08-21T02:36:25;101673.69;;;17.64;96.28
69318;BME280;56457;52.190;4.440;2022-08-21T02:37:26;101679.00;;;17.63;96.67
69318;BME280;56457;52.190;4.440;2022-08-21T02:38:29;101684.31;;;17.63;97.02
69318;BME280;56457;52.190;4.440;2022-08-21T02:39:30;101678.09;;;17.64;96.79
69318;BME280;56457;52.190;4.440;2022-08-21T02:40:32;101673.69;;;17.64;97.14
69318;BME280;56457;52.190;4.440;2022-08-21T02:41:33;101677.22;;;17.63;97.08
69318;BME280;56457;52.190;4.440;2022-08-21T02:42:34;101671.91;;;17.65;97.02
69318;BME280;56457;52.190;4.440;2022-08-21T02:43:35;101672.78;;;17.65;96.73
69318;BME280;56457;52.190;4.440;2022-08-21T02:44:36;101667.47;;;17.64;97.15
69318;BME280;56457;52.190;4.440;2022-08-21T02:45:38;101674.56;;;17.65;96.99
69318;BME280;56457;52.190;4.440;2022-08-21T02:46:38;101672.78;;;17.64;96.96
69318;BME280;56457;52.190;4.440;2022-08-21T02:47:40;101666.59;;;17.65;96.52
69318;BME280;56457;52.190;4.440;2022-08-21T02:48:40;101669.41;;;17.59;97.12
69318;BME280;56457;52.190;4.440;2022-08-21T02:49:41;101679.16;;;17.58;96.92
69318;BME280;56457;52.190;4.440;2022-08-21T02:50:44;101674.72;;;17.59;97.31
69318;BME280;56457;52.190;4.440;2022-08-21T02:51:44;101666.75;;;17.57;97.29
69318;BME280;56457;52.190;4.440;2022-08-21T02:52:45;101671.13;;;17.60;97.03
69318;BME280;56457;52.190;4.440;2022-08-21T02:53:46;101670.19;;;17.62;96.66
69318;BME280;56457;52.190;4.440;2022-08-21T02:54:47;101670.13;;;17.64;97.33
69318;BME280;56457;52.190;4.440;2022-08-21T02:55:49;101665.78;;;17.61;96.55
69318;BME280;56457;52.190;4.440;2022-08-21T02:56:49;101673.75;;;17.61;96.62
69318;BME280;56457;52.190;4.440;2022-08-21T02:57:50;101665.88;;;17.58;96.26
69318;BME280;56457;52.190;4.440;2022-08-21T02:58:52;101667.56;;;17.61;96.70
69318;BME280;56457;52.190;4.440;2022-08-21T02:59:52;101664.09;;;17.59;96.95
69318;BME280;56457;52.190;4.440;2022-08-21T03:00:53;101671.19;;;17.58;96.58
69318;BME280;56457;52.190;4.440;2022-08-21T03:01:53;101662.38;;;17.56;96.44
69318;BME280;56457;52.190;4.440;2022-08-21T03:02:54;101670.31;;;17.56;97.14
69318;BME280;56457;52.190;4.440;2022-08-21T03:03:56;101667.66;;;17.56;97.10
69318;BME280;56457;52.190;4.440;2022-08-21T03:04:56;101659.72;;;17.56;96.88
69318;BME280;56457;52.190;4.440;2022-08-21T03:05:57;101660.63;;;17.55;96.68
69318;BME280;56457;52.190;4.440;2022-08-21T03:06:57;101664.25;;;17.51;96.98
69318;BME280;56457;52.190;4.440;2022-08-21T03:07:59;101662.47;;;17.53;96.94
69318;BME280;56457;52.190;4.440;2022-08-21T03:09:00;101665.16;;;17.52;96.79
69318;BME280;56457;52.190;4.440;2022-08-21T03:10:00;101659.84;;;17.50;96.76
69318;BME280;56457;52.190;4.440;2022-08-21T03:11:01;101662.50;;;17.52;96.99
69318;BME280;56457;52.190;4.440;2022-08-21T03:12:02;101658.94;;;17.51;96.55
69318;BME280;56457;52.190;4.440;2022-08-21T03:13:03;101658.13;;;17.49;96.72
69318;BME280;56457;52.190;4.440;2022-08-21T03:14:04;101654.59;;;17.48;96.81
69318;BME280;56457;52.190;4.440;2022-08-21T03:15:07;101660.78;;;17.49;96.89
69318;BME280;56457;52.190;4.440;2022-08-21T03:16:08;101654.63;;;17.47;96.88
69318;BME280;56457;52.190;4.440;2022-08-21T03:17:09;101660.81;;;17.47;96.73
69318;BME280;56457;52.190;4.440;2022-08-21T03:18:10;101648.41;;;17.48;96.22
69318;BME280;56457;52.190;4.440;2022-08-21T03:19:11;101649.34;;;17.47;96.74
69318;BME280;56457;52.190;4.440;2022-08-21T03:20:14;101651.13;;;17.46;96.29
69318;BME280;56457;52.190;4.440;2022-08-21T03:21:14;101644.94;;;17.46;96.93
69318;BME280;56457;52.190;4.440;2022-08-21T03:22:15;101651.13;;;17.46;96.83
69318;BME280;56457;52.190;4.440;2022-08-21T03:23:16;101644.94;;;17.46;96.13
69318;BME280;56457;52.190;4.440;2022-08-21T03:24:17;101652.00;;;17.47;96.46
69318;BME280;56457;52.190;4.440;2022-08-21T03:25:18;101652.03;;;17.45;96.77
69318;BME280;56457;52.190;4.440;2022-08-21T03:26:18;101644.97;;;17.44;96.21
69318;BME280;56457;52.190;4.440;2022-08-21T03:27:19;101646.78;;;17.42;95.94
69318;BME280;56457;52.190;4.440;2022-08-21T03:28:20;101640.59;;;17.42;96.39
69318;BME280;56457;52.190;4.440;2022-08-21T03:29:21;101646.81;;;17.41;96.57
69318;BME280;56457;52.190;4.440;2022-08-21T03:30:22;101647.75;;;17.40;96.67
69318;BME280;56457;52.190;4.440;2022-08-21T03:31:22;101649.53;;;17.39;96.59
69318;BME280;56457;52.190;4.440;2022-08-21T03:32:23;101646.78;;;17.42;96.65
69318;BME280;56457;52.190;4.440;2022-08-21T03:33:24;101645.91;;;17.42;96.42
69318;BME280;56457;52.190;4.440;2022-08-21T03:34:24;101643.31;;;17.40;96.62
69318;BME280;56457;52.190;4.440;2022-08-21T03:35:26;101644.22;;;17.39;96.41
69318;BME280;56457;52.190;4.440;2022-08-21T03:36:27;101638.94;;;17.38;96.80
69318;BME280;56457;52.190;4.440;2022-08-21T03:37:28;101641.66;;;17.35;97.20
69318;BME280;56457;52.190;4.440;2022-08-21T03:38:30;101633.72;;;17.35;96.94
69318;BME280;56457;52.190;4.440;2022-08-21T03:39:31;101635.44;;;17.36;96.90
69318;BME280;56457;52.190;4.440;2022-08-21T03:40:32;101624.84;;;17.36;96.44
69318;BME280;56457;52.190;4.440;2022-08-21T03:41:32;101630.97;;;17.38;96.93
69318;BME280;56457;52.190;4.440;2022-08-21T03:42:33;101637.22;;;17.35;96.75
69318;BME280;56457;52.190;4.440;2022-08-21T03:43:34;101633.75;;;17.32;96.76
69318;BME280;56457;52.190;4.440;2022-08-21T03:44:34;101636.34;;;17.35;97.27
69318;BME280;56457;52.190;4.440;2022-08-21T03:45:35;101636.34;;;17.35;97.27
69318;BME280;56457;52.190;4.440;2022-08-21T03:46:36;101633.63;;;17.38;96.52
69318;BME280;56457;52.190;4.440;2022-08-21T03:47:36;101638.13;;;17.34;96.97
69318;BME280;56457;52.190;4.440;2022-08-21T03:48:37;101635.50;;;17.34;97.50
69318;BME280;56457;52.190;4.440;2022-08-21T03:49:38;101634.56;;;17.35;96.70
69318;BME280;56457;52.190;4.440;2022-08-21T03:50:41;101638.13;;;17.34;96.55
69318;BME280;56457;52.190;4.440;2022-08-21T03:51:42;101632.78;;;17.36;97.09
69318;BME280;56457;52.190;4.440;2022-08-21T03:52:42;101639.06;;;17.33;97.16
69318;BME280;56457;52.190;4.440;2022-08-21T03:53:43;101638.13;;;17.34;96.87
69318;BME280;56457;52.190;4.440;2022-08-21T03:54:44;101642.53;;;17.35;96.69
69318;BME280;56457;52.190;4.440;2022-08-21T03:55:46;101642.56;;;17.34;96.90
69318;BME280;56457;52.190;4.440;2022-08-21T03:56:47;101639.06;;;17.32;96.85
69318;BME280;56457;52.190;4.440;2022-08-21T03:57:47;101639.00;;;17.35;96.97
69318;BME280;56457;52.190;4.440;2022-08-21T03:58:48;101640.81;;;17.33;96.91
69318;BME280;56457;52.190;4.440;2022-08-21T03:59:48;101630.28;;;17.30;97.08
69318;BME280;56457;52.190;4.440;2022-08-21T04:00:52;101632.84;;;17.33;97.08
69318;BME280;56457;52.190;4.440;2022-08-21T04:01:54;101632.88;;;17.31;97.21
69318;BME280;56457;52.190;4.440;2022-08-21T04:02:55;101639.88;;;17.35;97.76
69318;BME280;56457;52.190;4.440;2022-08-21T04:03:55;101631.06;;;17.35;97.13
69318;BME280;56457;52.190;4.440;2022-08-21T04:04:56;101632.84;;;17.34;97.69
69318;BME280;56457;52.190;4.440;2022-08-21T04:05:56;101636.41;;;17.33;97.58
69318;BME280;56457;52.190;4.440;2022-08-21T04:06:57;101635.50;;;17.34;97.18
69318;BME280;56457;52.190;4.440;2022-08-21T04:08:00;101631.97;;;17.34;97.08
69318;BME280;56457;52.190;4.440;2022-08-21T04:09:01;101627.72;;;17.25;97.60
69318;BME280;56457;52.190;4.440;2022-08-21T04:10:03;101635.69;;;17.27;97.71
69318;BME280;56457;52.190;4.440;2022-08-21T04:11:05;101639.09;;;17.30;98.31
69318;BME280;56457;52.190;4.440;2022-08-21T04:12:06;101636.41;;;17.32;98.16
69318;BME280;56457;52.190;4.440;2022-08-21T04:13:07;101636.41;;;17.32;97.61
69318;BME280;56457;52.190;4.440;2022-08-21T04:14:07;101635.59;;;17.30;98.09
69318;BME280;56457;52.190;4.440;2022-08-21T04:15:08;101632.97;;;17.28;98.39
69318;BME280;56457;52.190;4.440;2022-08-21T04:16:09;101636.47;;;17.30;97.98
69318;BME280;56457;52.190;4.440;2022-08-21T04:17:09;101632.94;;;17.30;98.09
69318;BME280;56457;52.190;4.440;2022-08-21T04:18:10;101638.19;;;17.31;98.23
69318;BME280;56457;52.190;4.440;2022-08-21T04:19:12;101631.09;;;17.32;98.29
69318;BME280;56457;52.190;4.440;2022-08-21T04:20:17;101645.28;;;17.31;97.58
69318;BME280;56457;52.190;4.440;2022-08-21T04:21:17;101635.59;;;17.30;97.97
69318;BME280;56457;52.190;4.440;2022-08-21T04:22:18;101640.03;;;17.29;98.18
69318;BME280;56457;52.190;4.440;2022-08-21T04:23:19;101645.38;;;17.28;98.21
69318;BME280;56457;52.190;4.440;2022-08-21T04:24:19;101642.72;;;17.28;98.21
69318;BME280;56457;52.190;4.440;2022-08-21T04:25:22;101654.16;;;17.30;98.39
69318;BME280;56457;52.190;4.440;2022-08-21T04:26:23;101645.31;;;17.29;98.45
69318;BME280;56457;52.190;4.440;2022-08-21T04:27:23;101642.63;;;17.31;98.73
69318;BME280;56457;52.190;4.440;2022-08-21T04:28:25;101647.06;;;17.30;98.31
69318;BME280;56457;52.190;4.440;2022-08-21T04:29:26;101647.97;;;17.29;98.25
69318;BME280;56457;52.190;4.440;2022-08-21T04:30:27;101646.28;;;17.27;97.72
69318;BME280;56457;52.190;4.440;2022-08-21T04:31:28;101650.63;;;17.29;98.56
69318;BME280;56457;52.190;4.440;2022-08-21T04:32:31;101649.84;;;17.24;98.39
69318;BME280;56457;52.190;4.440;2022-08-21T04:33:31;101654.34;;;17.22;98.74
69318;BME280;56457;52.190;4.440;2022-08-21T04:34:32;101655.19;;;17.22;98.48
69318;BME280;56457;52.190;4.440;2022-08-21T04:35:32;101656.94;;;17.23;98.81
69318;BME280;56457;52.190;4.440;2022-08-21T04:36:33;101656.91;;;17.25;98.48
69318;BME280;56457;52.190;4.440;2022-08-21T04:37:39;101655.16;;;17.24;98.65
69318;BME280;56457;52.190;4.440;2022-08-21T04:38:39;101658.69;;;17.25;98.32
69318;BME280;56457;52.190;4.440;2022-08-21T04:39:40;101664.94;;;17.22;98.94
69318;BME280;56457;52.190;4.440;2022-08-21T04:40:40;101663.97;;;17.25;98.75
69318;BME280;56457;52.190;4.440;2022-08-21T04:41:41;101657.81;;;17.24;98.65
69318;BME280;56457;52.190;4.440;2022-08-21T04:42:47;101662.25;;;17.23;98.64
69318;BME280;56457;52.190;4.440;2022-08-21T04:43:52;101649.84;;;17.24;98.97
69318;BME280;56457;52.190;4.440;2022-08-21T04:44:54;101659.56;;;17.25;99.08
69318;BME280;56457;52.190;4.440;2022-08-21T04:45:57;101660.50;;;17.22;98.94
69318;BME280;56457;52.190;4.440;2022-08-21T04:46:58;101654.34;;;17.22;99.26
69318;BME280;56457;52.190;4.440;2022-08-21T04:48:00;101656.06;;;17.23;98.74
69318;BME280;56457;52.190;4.440;2022-08-21T04:49:01;101663.19;;;17.21;99.50
69318;BME280;56457;52.190;4.440;2022-08-21T04:50:01;101656.94;;;17.23;98.94
69318;BME280;56457;52.190;4.440;2022-08-21T04:51:06;101657.91;;;17.21;99.56
69318;BME280;56457;52.190;4.440;2022-08-21T04:52:07;101660.53;;;17.21;99.66
69318;BME280;56457;52.190;4.440;2022-08-21T04:53:18;101656.06;;;17.23;99.28
69318;BME280;56457;52.190;4.440;2022-08-21T04:54:21;101663.94;;;17.26;99.26
69318;BME280;56457;52.190;4.440;2022-08-21T04:55:22;101652.50;;;17.24;99.83
69318;BME280;56457;52.190;4.440;2022-08-21T04:56:37;101667.50;;;17.27;99.73
69318;BME280;56457;52.190;4.440;2022-08-21T04:57:40;101663.94;;;17.26;100.00
69318;BME280;56457;52.190;4.440;2022-08-21T04:58:41;101672.03;;;17.21;99.95
69318;BME280;56457;52.190;4.440;2022-08-21T04:59:48;101665.72;;;17.26;99.78
69318;BME280;56457;52.190;4.440;2022-08-21T05:00:52;101672.72;;;17.30;99.91
69318;BME280;56457;52.190;4.440;2022-08-21T05:01:54;101670.06;;;17.30;99.86
69318;BME280;56457;52.190;4.440;2022-08-21T05:02:57;101673.59;;;17.30;99.79
69318;BME280;56457;52.190;4.440;2022-08-21T05:04:00;101670.97;;;17.29;100.00
69318;BME280;56457;52.190;4.440;2022-08-21T05:05:03;101674.53;;;17.28;100.00
69318;BME280;56457;52.190;4.440;2022-08-21T05:06:04;101671.91;;;17.26;99.80
69318;BME280;56457;52.190;4.440;2022-08-21T05:07:10;101671.06;;;17.24;100.00
69318;BME280;56457;52.190;4.440;2022-08-21T05:08:14;101666.63;;;17.25;100.00
69318;BME280;56457;52.190;4.440;2022-08-21T05:09:19;101671.06;;;17.24;100.00
69318;BME280;56457;52.190;4.440;2022-08-21T05:10:20;101672.72;;;17.30;100.00
69318;BME280;56457;52.190;4.440;2022-08-21T05:11:21;101667.38;;;17.31;100.00
69318;BME280;56457;52.190;4.440;2022-08-21T05:12:22;101669.09;;;17.34;100.00
69318;BME280;56457;52.190;4.440;2022-08-21T05:13:23;101668.13;;;17.36;100.00
69318;BME280;56457;52.190;4.440;2022-08-21T05:14:23;101669.94;;;17.36;100.00
69318;BME280;56457;52.190;4.440;2022-08-21T05:15:23;101669.88;;;17.37;99.98
69318;BME280;56457;52.190;4.440;2022-08-21T05:16:24;101665.53;;;17.35;100.00
69318;BME280;56457;52.190;4.440;2022-08-21T05:17:24;101665.53;;;17.35;100.00
69318;BME280;56457;52.190;4.440;2022-08-21T05:18:25;101661.09;;;17.35;100.00
69318;BME280;56457;52.190;4.440;2022-08-21T05:19:25;101662.78;;;17.38;100.00
69318;BME280;56457;52.190;4.440;2022-08-21T05:20:27;101665.41;;;17.41;100.00
69318;BME280;56457;52.190;4.440;2022-08-21T05:21:28;101668.88;;;17.43;100.00
69318;BME280;56457;52.190;4.440;2022-08-21T05:22:28;101661.00;;;17.40;100.00
69318;BME280;56457;52.190;4.440;2022-08-21T05:23:29;101664.47;;;17.42;100.00